createdAt,value
2018-04-16T00:01:04.682Z,13.90
2018-04-16T00:03:33.424Z,13.90
2018-04-16T00:06:01.645Z,13.90
2018-04-16T00:08:29.918Z,13.90
2018-04-16T00:10:58.084Z,13.90
2018-04-16T00:13:26.767Z,13.90
2018-04-16T00:15:54.940Z,13.90
2018-04-16T00:18:23.118Z,13.90
2018-04-16T00:20:51.187Z,13.80
2018-04-16T00:23:19.473Z,13.80
2018-04-16T00:25:47.634Z,13.70
2018-04-16T00:28:15.921Z,13.70
2018-04-16T00:30:44.087Z,13.60
2018-04-16T00:33:17.754Z,13.60
2018-04-16T00:35:51.609Z,13.60
2018-04-16T00:38:25.914Z,13.60
2018-04-16T00:40:59.614Z,13.60
2018-04-16T00:43:33.288Z,13.70
2018-04-16T00:46:06.949Z,13.70
2018-04-16T00:51:42.167Z,13.70
2018-04-16T00:54:24.082Z,13.60
2018-04-16T00:56:57.737Z,13.60
2018-04-16T00:59:31.353Z,13.60
2018-04-16T01:02:04.842Z,13.60
2018-04-16T01:04:38.792Z,13.50
2018-04-16T01:07:12.328Z,13.50
2018-04-16T01:09:58.384Z,13.50
2018-04-16T01:12:31.957Z,13.40
2018-04-16T01:15:05.587Z,13.40
2018-04-16T01:17:39.290Z,13.40
2018-04-16T01:20:12.861Z,13.40
2018-04-16T01:22:46.461Z,13.50
2018-04-16T01:25:19.936Z,13.50
2018-04-16T01:27:53.657Z,13.50
2018-04-16T01:30:27.180Z,13.60
2018-04-16T01:33:02.183Z,13.70
2018-04-16T01:35:35.743Z,13.70
2018-04-16T01:38:09.391Z,13.70
2018-04-16T01:40:42.967Z,13.80
2018-04-16T01:43:16.576Z,13.80
2018-04-16T01:45:50.321Z,13.80
2018-04-16T01:48:23.760Z,13.80
2018-04-16T01:50:57.732Z,13.80
2018-04-16T01:53:31.255Z,13.70
2018-04-16T01:56:05.681Z,13.70
2018-04-16T01:58:39.214Z,13.60
2018-04-16T02:01:12.687Z,13.60
2018-04-16T02:03:46.068Z,13.60
2018-04-16T02:06:20.368Z,13.50
2018-04-16T02:08:54.016Z,13.50
2018-04-16T02:11:27.666Z,13.50
2018-04-16T02:14:01.269Z,13.50
2018-04-16T02:16:34.664Z,13.50
2018-04-16T02:19:08.130Z,13.60
2018-04-16T02:21:41.658Z,13.60
2018-04-16T02:27:20.498Z,13.60
2018-04-16T02:29:54.284Z,13.60
2018-04-16T02:32:27.975Z,13.60
2018-04-16T02:35:01.686Z,13.70
2018-04-16T02:37:35.214Z,13.70
2018-04-16T02:40:08.956Z,13.70
2018-04-16T02:42:42.829Z,13.70
2018-04-16T02:45:16.419Z,13.70
2018-04-16T02:47:49.960Z,13.70
2018-04-16T02:50:23.427Z,13.70
2018-04-16T02:52:56.879Z,13.80
2018-04-16T02:55:30.425Z,13.80
2018-04-16T02:58:03.991Z,13.80
2018-04-16T03:00:37.541Z,13.80
2018-04-16T03:03:11.780Z,13.80
2018-04-16T03:05:45.293Z,13.70
2018-04-16T03:08:18.832Z,13.70
2018-04-16T03:10:52.412Z,13.70
2018-04-16T03:13:25.938Z,13.70
2018-04-16T03:16:14.797Z,13.70
2018-04-16T03:18:48.549Z,13.70
2018-04-16T03:21:22.052Z,13.70
2018-04-16T03:23:55.701Z,13.60
2018-04-16T03:26:29.152Z,13.60
2018-04-16T03:29:02.758Z,13.60
2018-04-16T03:31:36.344Z,13.60
2018-04-16T03:34:09.997Z,13.60
2018-04-16T03:36:43.468Z,13.60
2018-04-16T03:39:17.308Z,13.60
2018-04-16T03:41:50.808Z,13.60
2018-04-16T03:44:24.498Z,13.60
2018-04-16T03:46:58.208Z,13.60
2018-04-16T03:49:31.633Z,13.50
2018-04-16T03:52:10.016Z,13.50
2018-04-16T03:54:39.323Z,13.50
2018-04-16T03:57:07.484Z,13.50
2018-04-16T03:59:36.170Z,13.50
2018-04-16T04:02:04.457Z,13.50
2018-04-16T04:04:32.733Z,13.50
2018-04-16T04:07:01.008Z,13.50
2018-04-16T04:09:29.891Z,13.50
2018-04-16T04:11:58.068Z,13.50
2018-04-16T04:14:26.097Z,13.50
2018-04-16T04:16:54.109Z,13.40
2018-04-16T04:19:22.175Z,13.40
2018-04-16T04:21:50.345Z,13.40
2018-04-16T04:24:30.403Z,13.30
2018-04-16T04:27:10.087Z,13.30
2018-04-16T04:29:50.023Z,13.30
2018-04-16T04:32:18.882Z,13.20
2018-04-16T04:34:47.054Z,13.20
2018-04-16T04:37:15.652Z,13.20
2018-04-16T04:39:44.529Z,13.20
2018-04-16T04:42:12.702Z,13.20
2018-04-16T04:44:40.886Z,13.20
2018-04-16T04:47:10.009Z,13.20
2018-04-16T04:49:38.149Z,13.20
2018-04-16T04:52:08.237Z,13.20
2018-04-16T04:54:36.334Z,13.20
2018-04-16T04:57:04.622Z,13.10
2018-04-16T04:59:32.680Z,13.20
2018-04-16T05:02:00.970Z,13.10
2018-04-16T05:04:29.246Z,13.10
2018-04-16T05:06:58.123Z,13.10
2018-04-16T05:09:26.412Z,13.10
2018-04-16T05:11:55.711Z,13.20
2018-04-16T05:14:26.649Z,13.10
2018-04-16T05:16:54.816Z,13.20
2018-04-16T05:19:23.099Z,13.30
2018-04-16T05:21:51.267Z,13.30
2018-04-16T05:24:19.387Z,13.40
2018-04-16T05:26:48.120Z,13.40
2018-04-16T05:29:16.298Z,13.40
2018-04-16T05:31:44.468Z,13.50
2018-04-16T05:34:12.641Z,13.60
2018-04-16T05:36:40.818Z,13.70
2018-04-16T05:39:08.991Z,13.70
2018-04-16T05:41:37.162Z,13.80
2018-04-16T05:44:05.341Z,13.90
2018-04-16T05:46:33.509Z,14.00
2018-04-16T05:49:01.583Z,14.00
2018-04-16T05:51:29.756Z,14.10
2018-04-16T05:53:57.929Z,14.20
2018-04-16T05:56:27.537Z,14.30
2018-04-16T05:58:55.720Z,14.30
2018-04-16T06:01:24.816Z,14.50
2018-04-16T06:03:53.697Z,14.60
2018-04-16T06:06:21.982Z,14.60
2018-04-16T06:08:50.860Z,14.70
2018-04-16T06:11:21.598Z,14.70
2018-04-16T06:13:49.881Z,14.80
2018-04-16T06:16:18.260Z,14.80
2018-04-16T06:18:47.140Z,15.00
2018-04-16T06:21:15.314Z,15.00
2018-04-16T06:23:43.491Z,15.10
2018-04-16T06:26:14.539Z,15.20
2018-04-16T06:28:42.668Z,15.20
2018-04-16T06:31:10.776Z,15.30
2018-04-16T06:33:38.949Z,15.50
2018-04-16T06:36:07.119Z,15.60
2018-04-16T06:38:35.298Z,15.70
2018-04-16T06:41:03.365Z,15.80
2018-04-16T06:43:31.535Z,16.00
2018-04-16T06:45:59.722Z,16.10
2018-04-16T06:48:28.600Z,16.30
2018-04-16T06:50:56.773Z,16.30
2018-04-16T06:53:25.062Z,16.50
2018-04-16T06:55:53.940Z,16.70
2018-04-16T06:58:22.015Z,16.70
2018-04-16T07:00:51.735Z,16.90
2018-04-16T07:03:19.908Z,16.90
2018-04-16T07:05:48.075Z,17.00
2018-04-16T07:08:17.072Z,17.20
2018-04-16T07:10:45.235Z,17.20
2018-04-16T07:13:14.956Z,17.40
2018-04-16T07:15:43.123Z,17.40
2018-04-16T07:18:11.294Z,17.40
2018-04-16T07:20:40.806Z,17.60
2018-04-16T07:23:09.081Z,17.60
2018-04-16T07:25:37.151Z,17.70
2018-04-16T07:28:05.435Z,17.80
2018-04-16T07:30:34.419Z,18.00
2018-04-16T07:33:02.485Z,17.90
2018-04-16T07:35:31.378Z,18.10
2018-04-16T07:37:59.658Z,18.10
2018-04-16T07:40:28.336Z,18.20
2018-04-16T07:42:56.296Z,18.20
2018-04-16T07:45:24.302Z,18.30
2018-04-16T07:47:53.378Z,18.40
2018-04-16T07:50:22.364Z,18.40
2018-04-16T07:52:50.535Z,18.50
2018-04-16T07:55:18.713Z,18.60
2018-04-16T07:57:46.880Z,18.60
2018-04-16T08:00:16.704Z,18.80
2018-04-16T08:02:44.981Z,18.80
2018-04-16T08:05:13.146Z,18.90
2018-04-16T08:07:41.317Z,19.00
2018-04-16T08:10:09.497Z,19.10
2018-04-16T08:12:37.666Z,19.20
2018-04-16T08:15:05.838Z,19.30
2018-04-16T08:17:33.914Z,19.40
2018-04-16T08:20:02.190Z,19.60
2018-04-16T08:22:30.152Z,19.70
2018-04-16T08:24:59.042Z,19.90
2018-04-16T08:27:27.937Z,20.00
2018-04-16T08:29:56.109Z,19.90
2018-04-16T08:32:24.499Z,20.10
2018-04-16T08:34:52.672Z,20.20
2018-04-16T08:37:21.447Z,20.30
2018-04-16T08:39:49.737Z,20.40
2018-04-16T08:42:17.896Z,20.50
2018-04-16T08:44:46.689Z,20.50
2018-04-16T08:47:14.760Z,20.60
2018-04-16T08:49:43.649Z,20.80
2018-04-16T08:52:11.819Z,20.80
2018-04-16T08:54:39.797Z,20.90
2018-04-16T08:57:07.961Z,20.90
2018-04-16T08:59:36.659Z,21.00
2018-04-16T09:02:04.821Z,21.10
2018-04-16T09:04:32.998Z,21.20
2018-04-16T09:07:01.697Z,21.40
2018-04-16T09:09:30.582Z,21.50
2018-04-16T09:11:59.259Z,21.50
2018-04-16T09:14:27.429Z,21.70
2018-04-16T09:16:55.608Z,21.80
2018-04-16T09:19:24.561Z,21.80
2018-04-16T09:21:52.608Z,21.90
2018-04-16T09:24:20.738Z,22.10
2018-04-16T09:26:51.575Z,22.20
2018-04-16T09:29:19.754Z,22.30
2018-04-16T09:31:50.490Z,22.40
2018-04-16T09:34:18.660Z,22.50
2018-04-16T09:36:46.935Z,22.50
2018-04-16T09:39:15.004Z,22.70
2018-04-16T09:41:43.177Z,22.80
2018-04-16T09:44:11.363Z,22.90
2018-04-16T09:46:40.139Z,23.10
2018-04-16T09:49:08.311Z,23.20
2018-04-16T09:51:36.491Z,23.30
2018-04-16T09:54:04.774Z,23.40
2018-04-16T09:56:33.050Z,23.50
2018-04-16T09:59:01.221Z,23.70
2018-04-16T10:01:29.385Z,23.80
2018-04-16T10:03:57.572Z,23.90
2018-04-16T10:06:25.738Z,24.00
2018-04-16T10:08:53.803Z,24.10
2018-04-16T10:11:21.999Z,24.30
2018-04-16T10:13:50.982Z,24.50
2018-04-16T10:16:19.152Z,24.50
2018-04-16T10:18:47.329Z,24.70
2018-04-16T10:21:15.491Z,24.80
2018-04-16T10:23:43.677Z,24.90
2018-04-16T10:26:18.470Z,25.10
2018-04-16T10:28:46.781Z,25.20
2018-04-16T10:31:14.949Z,25.40
2018-04-16T10:33:43.121Z,25.60
2018-04-16T10:36:11.294Z,25.70
2018-04-16T10:38:39.470Z,25.90
2018-04-16T10:41:07.906Z,26.10
2018-04-16T10:43:36.130Z,26.20
2018-04-16T10:46:04.805Z,26.30
2018-04-16T10:48:32.959Z,26.40
2018-04-16T10:51:01.052Z,26.60
2018-04-16T10:53:29.125Z,26.70
2018-04-16T10:55:57.408Z,26.80
2018-04-16T10:58:25.578Z,26.90
2018-04-16T11:00:53.799Z,27.10
2018-04-16T11:03:21.918Z,27.30
2018-04-16T11:05:50.782Z,27.50
2018-04-16T11:08:18.819Z,27.80
2018-04-16T11:10:47.577Z,27.90
2018-04-16T11:13:16.460Z,28.20
2018-04-16T11:15:44.631Z,28.20
2018-04-16T11:18:12.916Z,28.20
2018-04-16T11:20:41.193Z,28.30
2018-04-16T11:23:09.355Z,28.30
2018-04-16T11:25:38.040Z,28.20
2018-04-16T11:28:06.834Z,28.30
2018-04-16T11:30:35.000Z,28.50
2018-04-16T11:33:03.073Z,28.60
2018-04-16T11:35:31.148Z,28.70
2018-04-16T11:37:59.367Z,28.80
2018-04-16T11:40:27.607Z,28.80
2018-04-16T11:42:55.770Z,28.80
2018-04-16T11:45:24.054Z,28.80
2018-04-16T11:47:52.216Z,28.60
2018-04-16T11:50:21.919Z,28.80
2018-04-16T11:52:50.214Z,28.90
2018-04-16T11:55:18.375Z,29.10
2018-04-16T11:57:47.168Z,29.40
2018-04-16T12:00:16.987Z,29.60
2018-04-16T12:02:45.007Z,29.70
2018-04-16T12:05:13.122Z,29.90
2018-04-16T12:07:41.406Z,29.90
2018-04-16T12:10:10.693Z,29.80
2018-04-16T12:12:38.665Z,29.70
2018-04-16T12:15:06.835Z,29.80
2018-04-16T12:17:35.009Z,29.60
2018-04-16T12:20:03.800Z,29.20
2018-04-16T12:22:31.970Z,28.90
2018-04-16T12:24:59.921Z,28.90
2018-04-16T12:27:27.877Z,29.00
2018-04-16T12:29:55.808Z,29.10
2018-04-16T12:32:24.530Z,29.40
2018-04-16T12:34:52.470Z,29.40
2018-04-16T12:37:20.566Z,29.50
2018-04-16T12:39:48.577Z,29.60
2018-04-16T12:42:16.609Z,29.70
2018-04-16T12:44:44.717Z,29.70
2018-04-16T12:47:12.813Z,29.60
2018-04-16T12:49:41.544Z,29.20
2018-04-16T12:52:09.746Z,29.20
2018-04-16T12:54:37.824Z,28.80
2018-04-16T12:57:05.892Z,28.40
2018-04-16T12:59:33.975Z,28.10
2018-04-16T13:02:02.030Z,27.90
2018-04-16T13:04:30.162Z,27.60
2018-04-16T13:06:58.457Z,27.30
2018-04-16T13:09:26.653Z,27.00
2018-04-16T13:11:54.857Z,26.80
2018-04-16T13:14:23.747Z,26.50
2018-04-16T13:16:52.684Z,26.40
2018-04-16T13:19:20.912Z,26.30
2018-04-16T13:21:50.193Z,26.10
2018-04-16T13:24:18.319Z,26.00
2018-04-16T13:26:46.281Z,25.90
2018-04-16T13:29:14.332Z,25.90
2018-04-16T13:31:43.083Z,25.70
2018-04-16T13:34:11.271Z,25.70
2018-04-16T13:36:39.442Z,25.70
2018-04-16T13:39:07.577Z,25.60
2018-04-16T13:41:35.595Z,25.50
2018-04-16T13:44:04.434Z,25.40
2018-04-16T13:46:32.512Z,25.40
2018-04-16T13:49:00.599Z,25.40
2018-04-16T13:51:28.715Z,25.30
2018-04-16T13:53:57.563Z,25.10
2018-04-16T13:56:25.557Z,25.10
2018-04-16T13:58:54.279Z,25.00
2018-04-16T14:01:22.192Z,25.00
2018-04-16T14:03:50.336Z,25.00
2018-04-16T14:06:18.443Z,24.90
2018-04-16T14:08:46.447Z,24.90
2018-04-16T14:11:14.687Z,24.90
2018-04-16T14:13:43.592Z,24.90
2018-04-16T14:16:12.903Z,24.80
2018-04-16T14:18:44.252Z,24.80
2018-04-16T14:21:13.649Z,24.70
2018-04-16T14:23:42.950Z,24.70
2018-04-16T14:26:12.321Z,24.70
2018-04-16T14:28:40.945Z,24.70
2018-04-16T14:31:10.028Z,24.60
2018-04-16T14:33:39.549Z,24.50
2018-04-16T14:36:08.763Z,24.60
2018-04-16T14:38:38.144Z,24.60
2018-04-16T14:41:07.767Z,24.60
2018-04-16T14:43:38.073Z,24.50
2018-04-16T14:46:07.585Z,24.50
2018-04-16T14:48:36.377Z,24.50
2018-04-16T14:51:05.148Z,24.50
2018-04-16T14:53:34.536Z,24.50
2018-04-16T14:56:04.793Z,24.40
2018-04-16T14:58:35.010Z,24.40
2018-04-16T15:01:04.923Z,24.50
2018-04-16T15:03:36.144Z,24.50
2018-04-16T15:06:05.778Z,24.40
2018-04-16T15:08:35.260Z,24.40
2018-04-16T15:11:04.741Z,24.40
2018-04-16T15:13:34.280Z,24.30
2018-04-16T15:16:03.682Z,24.20
2018-04-16T15:18:34.208Z,24.10
2018-04-16T15:21:03.723Z,24.10
2018-04-16T15:23:33.407Z,24.10
2018-04-16T15:26:02.936Z,24.00
2018-04-16T15:28:32.426Z,24.00
2018-04-16T15:31:01.861Z,23.90
2018-04-16T15:33:30.634Z,23.90
2018-04-16T15:36:00.044Z,23.80
2018-04-16T15:38:29.651Z,23.80
2018-04-16T15:40:59.257Z,23.70
2018-04-16T15:43:28.146Z,23.70
2018-04-16T15:45:57.859Z,23.70
2018-04-16T15:48:26.296Z,23.60
2018-04-16T15:50:56.438Z,23.60
2018-04-16T15:53:26.069Z,23.60
2018-04-16T15:55:55.776Z,23.60
2018-04-16T15:58:25.289Z,23.60
2018-04-16T16:00:53.957Z,23.50
2018-04-16T16:03:23.584Z,23.50
2018-04-16T16:05:53.799Z,23.50
2018-04-16T16:08:23.609Z,23.40
2018-04-16T16:10:52.984Z,23.40
2018-04-16T16:13:21.789Z,23.40
2018-04-16T16:15:50.194Z,23.40
2018-04-16T16:18:18.959Z,23.30
2018-04-16T16:20:49.323Z,23.30
2018-04-16T16:23:18.077Z,23.20
2018-04-16T16:25:47.780Z,23.20
2018-04-16T16:28:16.663Z,23.20
2018-04-16T16:30:46.221Z,23.10
2018-04-16T16:33:14.451Z,23.10
2018-04-16T16:35:44.053Z,23.10
2018-04-16T16:38:13.954Z,23.00
2018-04-16T16:40:43.722Z,23.00
2018-04-16T16:43:13.492Z,22.90
2018-04-16T16:45:42.276Z,22.90
2018-04-16T16:48:11.996Z,22.80
2018-04-16T16:50:40.786Z,22.70
2018-04-16T16:53:11.101Z,22.70
2018-04-16T16:55:40.925Z,22.60
2018-04-16T16:58:09.708Z,22.60
2018-04-16T17:00:38.437Z,22.50
2018-04-16T17:03:07.894Z,22.30
2018-04-16T17:05:37.501Z,22.30
2018-04-16T17:08:06.288Z,22.30
2018-04-16T17:10:36.008Z,22.10
2018-04-16T17:13:04.799Z,22.10
2018-04-16T17:15:33.877Z,21.90
2018-04-16T17:18:04.640Z,21.90
2018-04-16T17:20:32.964Z,21.80
2018-04-16T17:23:01.227Z,21.80
2018-04-16T17:25:29.486Z,21.60
2018-04-16T17:27:57.709Z,21.60
2018-04-16T17:30:26.758Z,21.40
2018-04-16T17:32:55.199Z,21.40
2018-04-16T17:35:24.389Z,21.30
2018-04-16T17:37:52.677Z,21.20
2018-04-16T17:40:20.949Z,21.20
2018-04-16T17:42:49.239Z,21.10
2018-04-16T17:45:17.611Z,21.10
2018-04-16T17:47:45.903Z,21.00
2018-04-16T17:50:14.180Z,20.90
2018-04-16T17:52:42.441Z,20.90
2018-04-16T17:55:10.822Z,20.80
2018-04-16T17:57:39.111Z,20.70
2018-04-16T18:00:07.394Z,20.70
2018-04-16T18:02:35.711Z,20.60
2018-04-16T18:05:04.832Z,20.50
2018-04-16T18:07:33.158Z,20.50
2018-04-16T18:10:01.448Z,20.40
2018-04-16T18:12:29.679Z,20.40
2018-04-16T18:14:57.970Z,20.30
2018-04-16T18:17:26.237Z,20.30
2018-04-16T18:19:54.589Z,20.20
2018-04-16T18:22:22.989Z,20.10
2018-04-16T18:24:51.242Z,20.00
2018-04-16T18:27:19.538Z,20.00
2018-04-16T18:29:47.858Z,19.90
2018-04-16T18:32:16.073Z,19.90
2018-04-16T18:34:44.356Z,19.80
2018-04-16T18:37:12.643Z,19.80
2018-04-16T18:39:40.918Z,19.70
2018-04-16T18:42:09.393Z,19.70
2018-04-16T18:44:39.798Z,19.60
2018-04-16T18:47:09.426Z,19.50
2018-04-16T18:49:39.441Z,19.50
2018-04-16T18:52:09.100Z,19.50
2018-04-16T18:54:38.529Z,19.40
2018-04-16T18:57:08.260Z,19.40
2018-04-16T18:59:37.965Z,19.30
2018-04-16T19:02:07.577Z,19.40
2018-04-16T19:04:37.182Z,19.30
2018-04-16T19:07:06.994Z,19.20
2018-04-16T19:09:36.017Z,19.20
2018-04-16T19:12:04.972Z,19.20
2018-04-16T19:14:40.847Z,19.00
2018-04-16T19:17:10.475Z,19.00
2018-04-16T19:19:39.680Z,19.00
2018-04-16T19:22:09.659Z,18.90
2018-04-16T19:24:38.544Z,18.90
2018-04-16T19:27:14.608Z,18.80
2018-04-16T19:29:43.489Z,18.80
2018-04-16T19:32:12.495Z,18.80
2018-04-16T19:34:47.350Z,18.70
2018-04-16T19:37:16.202Z,18.70
2018-04-16T19:39:44.950Z,18.60
2018-04-16T19:42:20.131Z,18.60
2018-04-16T19:44:49.746Z,18.50
2018-04-16T19:47:19.447Z,18.40
2018-04-16T19:49:54.362Z,18.40
2018-04-16T19:52:24.596Z,18.40
2018-04-16T19:54:55.450Z,18.30
2018-04-16T19:57:29.454Z,18.30
2018-04-16T19:59:59.066Z,18.30
2018-04-16T20:02:33.986Z,18.20
2018-04-16T20:05:02.877Z,18.20
2018-04-16T20:07:32.745Z,18.10
2018-04-16T20:10:02.294Z,18.10
2018-04-16T20:12:31.093Z,18.10
2018-04-16T20:15:00.580Z,18.00
2018-04-16T20:17:29.270Z,18.00
2018-04-16T20:19:58.798Z,18.00
2018-04-16T20:22:27.564Z,18.00
2018-04-16T20:24:58.296Z,17.90
2018-04-16T20:27:27.851Z,17.90
2018-04-16T20:29:58.795Z,17.90
2018-04-16T20:32:27.734Z,17.80
2018-04-16T20:34:56.983Z,17.80
2018-04-16T20:37:25.335Z,17.80
2018-04-16T20:39:53.624Z,17.80
2018-04-16T20:42:21.937Z,17.70
2018-04-16T20:44:50.937Z,17.70
2018-04-16T20:47:19.957Z,17.60
2018-04-16T20:49:48.215Z,17.60
2018-04-16T20:52:17.232Z,17.50
2018-04-16T20:54:45.533Z,17.50
2018-04-16T20:57:13.986Z,17.50
2018-04-16T20:59:43.473Z,17.40
2018-04-16T21:02:12.719Z,17.40
2018-04-16T21:04:41.461Z,17.40
2018-04-16T21:07:12.035Z,17.30
2018-04-16T21:09:42.588Z,17.30
2018-04-16T21:12:12.889Z,17.30
2018-04-16T21:14:43.180Z,17.20
2018-04-16T21:17:12.151Z,17.20
2018-04-16T21:19:41.661Z,17.20
2018-04-16T21:22:11.172Z,17.10
2018-04-16T21:24:40.346Z,17.10
2018-04-16T21:27:09.987Z,17.10
2018-04-16T21:29:40.394Z,17.00
2018-04-16T21:32:09.169Z,17.00
2018-04-16T21:34:40.932Z,17.00
2018-04-16T21:37:10.117Z,17.00
2018-04-16T21:39:38.991Z,17.00
2018-04-16T21:42:08.601Z,16.90
2018-04-16T21:44:38.422Z,16.80
2018-04-16T21:47:06.584Z,16.80
2018-04-16T21:49:36.296Z,16.80
2018-04-16T21:52:05.906Z,16.70
2018-04-16T21:54:34.894Z,16.80
2018-04-16T21:57:04.712Z,16.80
2018-04-16T21:59:32.987Z,16.70
2018-04-16T22:02:01.875Z,16.70
2018-04-16T22:04:30.765Z,16.70
2018-04-16T22:07:00.579Z,16.60
2018-04-16T22:09:29.680Z,16.60
2018-04-16T22:11:59.486Z,16.60
2018-04-16T22:14:28.371Z,16.50
2018-04-16T22:16:56.545Z,16.50
2018-04-16T22:19:26.259Z,16.40
2018-04-16T22:21:55.965Z,16.30
2018-04-16T22:24:25.779Z,16.30
2018-04-16T22:26:54.781Z,16.30
2018-04-16T22:29:23.773Z,16.20
2018-04-16T22:31:51.940Z,16.20
2018-04-16T22:34:21.544Z,16.20
2018-04-16T22:36:51.361Z,16.10
2018-04-16T22:39:21.068Z,16.10
2018-04-16T22:41:49.353Z,16.10
2018-04-16T22:44:18.230Z,16.10
2018-04-16T22:46:47.229Z,16.10
2018-04-16T22:49:15.504Z,16.00
2018-04-16T22:51:44.494Z,16.00
2018-04-16T22:54:13.489Z,16.00
2018-04-16T22:56:42.375Z,16.00
2018-04-16T22:59:11.372Z,16.00
2018-04-16T23:01:40.301Z,16.00
2018-04-16T23:04:08.539Z,16.00
2018-04-16T23:06:36.821Z,16.00
2018-04-16T23:09:06.831Z,16.00
2018-04-16T23:11:35.115Z,16.00
2018-04-16T23:14:04.110Z,16.00
2018-04-16T23:16:32.987Z,16.00
2018-04-16T23:19:01.899Z,16.00
2018-04-16T23:21:30.875Z,16.00
2018-04-16T23:24:00.693Z,15.90
2018-04-16T23:26:28.866Z,15.90
2018-04-16T23:28:57.028Z,15.90
2018-04-16T23:31:25.214Z,15.90
2018-04-16T23:33:53.489Z,15.90
2018-04-16T23:36:22.369Z,15.80
2018-04-16T23:38:51.879Z,15.80
2018-04-16T23:41:21.595Z,15.80
2018-04-16T23:43:50.474Z,15.70
2018-04-16T23:46:18.755Z,15.70
2018-04-16T23:48:46.924Z,15.80
2018-04-16T23:51:15.611Z,15.70
2018-04-16T23:53:43.898Z,15.70
2018-04-16T23:56:12.167Z,15.70
2018-04-16T23:58:41.770Z,15.60
